Evansville Regional Airport Evansville US
ICAO: KEVV
IATA: EVV
Category: Medium
Scheduled Services: Yes

Elevation: 418 ft
TransAlt. 18000 ft.

Airport Communications:
APP/DEP:126.4
ATIS:120.2
CLNC DEL:126.6
CTAF:118.7
GND:121.9
TERRE HAUTE RDO:122.65
TWR:118.7
UNICOM:122.95

KEVV Zoom In..

Runways:

(A) RW 04 length 8020 ft width 150 ft
ILS 109.90 / hdg 38

(B) RW 09 length 3497 ft width 75 ft
---- / hdg 91

(C) RW 18 length 6286 ft width 150 ft
---- / hdg 181

(D) RW 22 length 8020 ft width 150 ft
ILS 109.90 / hdg 218

(E) RW 27 length 3497 ft width 75 ft
---- / hdg 271

(F) RW 36 length 6286 ft width 150 ft
---- / hdg 1

Location; KEVV
Day. 23 / Time. 21.54 Zulu
* Altimeter: 30.12
* Temperature: 01° c. 33.8°f.
* Wind from: 270° Speed 09 kn.
Dewpoint: 00° c.
Visibility: 10 Statute Miles.
Clouds: Few 1200 ft.
Clouds: Broken 2700 ft.
Clouds: Overcast 3400 ft.

KEVV 232154Z 27009KT 10SM FEW012 BKN027 OVC034 01/00 A3012 RMK AO2 RAB2059E44 SLP202 P0000 T00110000


Wind From 270°
Speed 09 kn.

YouTube Music Video
 
jpsmedia.com for Web Design  worldairports.se 2018   terms of use